createdAt,value
2018-06-22T00:00:35.193Z,98564.33
2018-06-22T00:01:38.543Z,98563.44
2018-06-22T00:02:41.386Z,98560.58
2018-06-22T00:03:44.235Z,98567.81
2018-06-22T00:04:48.692Z,98563.57
2018-06-22T00:07:00.767Z,98566.53
2018-06-22T00:08:03.879Z,98564.59
2018-06-22T00:09:06.753Z,98563.57
2018-06-22T00:10:09.612Z,98561.53
2018-06-22T00:11:13.342Z,98564.33
2018-06-22T00:12:17.276Z,98562.63
2018-06-22T00:13:20.087Z,98566.11
2018-06-22T00:14:23.262Z,98566.84
2018-06-22T00:15:27.085Z,98569.05
2018-06-22T00:16:29.938Z,98563.30
2018-06-22T00:17:33.396Z,98566.97
2018-06-22T00:18:36.249Z,98565.89
2018-06-22T00:19:39.043Z,98556.28
2018-06-22T00:20:42.199Z,98571.17
2018-06-22T00:21:45.109Z,98563.14
2018-06-22T00:22:47.924Z,98565.42
2018-06-22T00:23:50.783Z,98557.45
2018-06-22T00:24:54.163Z,98558.74
2018-06-22T00:25:58.954Z,98555.33
2018-06-22T00:27:02.627Z,98556.62
2018-06-22T00:28:06.155Z,98555.20
2018-06-22T00:29:09.531Z,98557.80
2018-06-22T00:30:12.353Z,98562.20
2018-06-22T00:31:15.158Z,98555.20
2018-06-22T00:32:17.979Z,98562.38
2018-06-22T00:33:21.880Z,98556.44
2018-06-22T00:34:25.726Z,98559.28
2018-06-22T00:35:29.052Z,98556.03
2018-06-22T00:36:31.891Z,98559.47
2018-06-22T00:37:34.679Z,98551.36
2018-06-22T00:38:37.817Z,98555.13
2018-06-22T00:39:40.980Z,98560.28
2018-06-22T00:40:43.851Z,98561.83
2018-06-22T00:41:46.694Z,98565.47
2018-06-22T00:42:49.793Z,98555.31
2018-06-22T00:43:53.437Z,98557.67
2018-06-22T00:44:56.471Z,98558.98
2018-06-22T00:45:59.595Z,98563.34
2018-06-22T00:47:02.559Z,98556.72
2018-06-22T00:48:06.169Z,98556.97
2018-06-22T00:49:09.003Z,98550.38
2018-06-22T00:50:11.813Z,98556.48
2018-06-22T00:51:14.647Z,98555.13
2018-06-22T00:52:19.854Z,98559.58
2018-06-22T00:53:22.822Z,98557.29
2018-06-22T00:54:25.672Z,98557.34
2018-06-22T00:55:28.501Z,98559.95
2018-06-22T00:56:32.363Z,98558.02
2018-06-22T00:57:36.923Z,98553.34
2018-06-22T00:58:42.002Z,98548.64
2018-06-22T00:59:46.485Z,98554.77
2018-06-22T01:00:50.748Z,98548.34
2018-06-22T01:01:53.624Z,98558.77
2018-06-22T01:02:58.453Z,98552.64
2018-06-22T01:04:01.276Z,98553.54
2018-06-22T01:05:04.565Z,98544.95
2018-06-22T01:06:07.735Z,98545.02
2018-06-22T01:07:11.833Z,98543.22
2018-06-22T01:08:14.655Z,98541.86
2018-06-22T01:09:18.411Z,98537.52
2018-06-22T01:10:21.895Z,98547.36
2018-06-22T01:11:26.045Z,98542.90
2018-06-22T01:12:28.944Z,98538.60
2018-06-22T01:13:31.833Z,98539.83
2018-06-22T01:14:38.204Z,98534.27
2018-06-22T01:15:41.645Z,98536.23
2018-06-22T01:16:44.486Z,98538.59
2018-06-22T01:17:48.676Z,98535.75
2018-06-22T01:18:52.145Z,98517.64
2018-06-22T01:19:55.410Z,98535.30
2018-06-22T01:21:00.724Z,98521.91
2018-06-22T01:22:03.547Z,98529.63
2018-06-22T01:23:08.026Z,98541.06
2018-06-22T01:24:11.795Z,98523.64
2018-06-22T01:25:14.658Z,98528.95
2018-06-22T01:26:17.574Z,98531.67
2018-06-22T01:27:24.063Z,98530.19
2018-06-22T01:28:27.565Z,98529.15
2018-06-22T01:29:31.906Z,98525.01
2018-06-22T01:30:35.685Z,98521.20
2018-06-22T01:31:38.498Z,98533.28
2018-06-22T01:32:41.453Z,98526.11
2018-06-22T01:33:44.269Z,98528.70
2018-06-22T01:34:48.658Z,98513.11
2018-06-22T01:35:52.201Z,98532.26
2018-06-22T01:36:55.409Z,98532.59
2018-06-22T01:37:58.194Z,98527.94
2018-06-22T01:39:01.398Z,98524.61
2018-06-22T01:40:04.473Z,98517.95
2018-06-22T01:41:08.442Z,98530.06
2018-06-22T01:42:11.297Z,98531.48
2018-06-22T01:43:14.415Z,98522.69
2018-06-22T01:44:17.295Z,98528.06
2018-06-22T01:45:20.107Z,98524.17
2018-06-22T01:46:23.055Z,98528.51
2018-06-22T01:47:25.868Z,98514.31
2018-06-22T01:48:28.734Z,98528.89
2018-06-22T01:49:31.842Z,98529.55
2018-06-22T01:50:34.643Z,98528.69
2018-06-22T01:51:37.478Z,98530.24
2018-06-22T01:52:40.334Z,98527.91
2018-06-22T01:53:43.251Z,98528.64
2018-06-22T01:54:46.108Z,98527.03
2018-06-22T01:55:49.282Z,98523.52
2018-06-22T01:56:52.051Z,98522.34
2018-06-22T01:57:54.855Z,98520.92
2018-06-22T01:58:57.696Z,98522.28
2018-06-22T02:00:00.493Z,98516.53
2018-06-22T02:01:03.281Z,98519.69
2018-06-22T02:02:06.374Z,98531.41
2018-06-22T02:03:09.162Z,98529.08
2018-06-22T02:04:12.015Z,98537.64
2018-06-22T02:05:14.857Z,98533.81
2018-06-22T02:06:17.675Z,98521.31
2018-06-22T02:07:20.508Z,98533.55
2018-06-22T02:08:23.635Z,98513.53
2018-06-22T02:09:26.435Z,98509.05
2018-06-22T02:10:29.236Z,98522.51
2018-06-22T02:11:32.018Z,98529.34
2018-06-22T02:12:34.848Z,98532.69
2018-06-22T02:13:37.719Z,98531.38
2018-06-22T02:14:40.886Z,98535.64
2018-06-22T02:15:43.736Z,98532.42
2018-06-22T02:16:46.576Z,98539.68
2018-06-22T02:17:49.346Z,98519.89
2018-06-22T02:18:52.141Z,98534.62
2018-06-22T02:19:54.967Z,98539.42
2018-06-22T02:20:58.085Z,98537.56
2018-06-22T02:22:01.709Z,98543.19
2018-06-22T02:23:05.157Z,98544.27
2018-06-22T02:24:07.965Z,98537.09
2018-06-22T02:25:10.736Z,98543.58
2018-06-22T02:26:13.551Z,98530.70
2018-06-22T02:27:16.623Z,98538.63
2018-06-22T02:28:19.433Z,98529.42
2018-06-22T02:29:22.276Z,98523.69
2018-06-22T02:30:25.142Z,98532.13
2018-06-22T02:31:27.986Z,98526.69
2018-06-22T02:32:30.800Z,98538.19
2018-06-22T02:33:34.395Z,98529.31
2018-06-22T02:34:37.203Z,98526.47
2018-06-22T02:35:40.034Z,98533.26
2018-06-22T02:36:42.816Z,98523.00
2018-06-22T02:37:45.648Z,98523.00
2018-06-22T02:38:48.447Z,98527.21
2018-06-22T02:39:51.609Z,98529.14
2018-06-22T02:40:54.441Z,98520.73
2018-06-22T02:41:57.227Z,98518.61
2018-06-22T02:43:00.047Z,98514.84
2018-06-22T02:44:03.438Z,98516.58
2018-06-22T02:45:06.230Z,98518.53
2018-06-22T02:46:10.496Z,98521.88
2018-06-22T02:47:13.274Z,98519.73
2018-06-22T02:48:16.356Z,98524.41
2018-06-22T02:49:19.139Z,98514.72
2018-06-22T02:50:22.017Z,98521.45
2018-06-22T02:51:24.787Z,98510.30
2018-06-22T02:52:27.946Z,98515.67
2018-06-22T02:53:31.523Z,98502.55
2018-06-22T02:54:34.330Z,98516.08
2018-06-22T02:55:37.114Z,98515.82
2018-06-22T02:56:40.684Z,98505.33
2018-06-22T02:57:43.504Z,98506.87
2018-06-22T02:58:47.626Z,98508.23
2018-06-22T02:59:50.449Z,98516.39
2018-06-22T03:00:55.020Z,98517.19
2018-06-22T03:01:57.828Z,98512.12
2018-06-22T03:03:00.679Z,98519.36
2018-06-22T03:04:04.148Z,98512.06
2018-06-22T03:05:07.237Z,98515.72
2018-06-22T03:06:09.990Z,98522.20
2018-06-22T03:07:12.798Z,98512.06
2018-06-22T03:08:15.613Z,98518.31
2018-06-22T03:09:18.464Z,98511.05
2018-06-22T03:10:22.467Z,98504.20
2018-06-22T03:11:25.735Z,98512.73
2018-06-22T03:12:28.537Z,98522.56
2018-06-22T03:13:31.355Z,98517.36
2018-06-22T03:14:34.284Z,98503.23
2018-06-22T03:15:37.104Z,98512.30
2018-06-22T03:16:39.972Z,98501.11
2018-06-22T03:17:43.079Z,98507.71
2018-06-22T03:18:45.893Z,98514.81
2018-06-22T03:19:48.680Z,98508.28
2018-06-22T03:20:52.286Z,98495.62
2018-06-22T03:21:55.089Z,98504.08
2018-06-22T03:22:57.904Z,98501.68
2018-06-22T03:24:01.036Z,98502.47
2018-06-22T03:25:04.665Z,98500.88
2018-06-22T03:26:07.651Z,98505.75
2018-06-22T03:27:10.466Z,98490.36
2018-06-22T03:28:14.408Z,98494.19
2018-06-22T03:29:17.228Z,98502.28
2018-06-22T03:30:20.442Z,98503.48
2018-06-22T03:31:23.228Z,98488.77
2018-06-22T03:32:26.944Z,98487.91
2018-06-22T03:33:29.786Z,98488.89
2018-06-22T03:34:32.659Z,98493.59
2018-06-22T03:35:35.447Z,98493.34
2018-06-22T03:36:38.254Z,98493.34
2018-06-22T03:37:41.087Z,98495.80
2018-06-22T03:38:43.907Z,98498.11
2018-06-22T03:39:47.145Z,98501.17
2018-06-22T03:40:50.590Z,98501.81
2018-06-22T03:41:53.409Z,98505.64
2018-06-22T03:42:56.250Z,98502.59
2018-06-22T03:43:59.040Z,98492.42
2018-06-22T03:45:01.977Z,98495.94
2018-06-22T03:46:04.789Z,98483.95
2018-06-22T03:47:11.141Z,98503.22
2018-06-22T03:48:13.956Z,98493.14
2018-06-22T03:49:16.837Z,98490.36
2018-06-22T03:50:19.599Z,98491.17
2018-06-22T03:51:22.400Z,98497.02
2018-06-22T03:52:26.325Z,98502.83
2018-06-22T03:53:29.512Z,98494.85
2018-06-22T03:54:32.301Z,98501.03
2018-06-22T03:55:35.154Z,98507.69
2018-06-22T03:56:38.057Z,98503.41
2018-06-22T03:57:41.656Z,98510.81
2018-06-22T03:58:44.732Z,98497.42
2018-06-22T03:59:47.569Z,98499.41
2018-06-22T04:00:50.387Z,98501.34
2018-06-22T04:01:53.219Z,98491.06
2018-06-22T04:02:56.019Z,98480.55
2018-06-22T04:03:58.829Z,98489.97
2018-06-22T04:05:01.977Z,98501.68
2018-06-22T04:06:04.790Z,98503.55
2018-06-22T04:07:07.729Z,98494.04
2018-06-22T04:08:12.369Z,98499.95
2018-06-22T04:09:15.984Z,98484.03
2018-06-22T04:10:18.910Z,98489.27
2018-06-22T04:11:22.011Z,98444.19
2018-06-22T04:12:24.842Z,98437.52
2018-06-22T04:13:27.635Z,98488.29
2018-06-22T04:14:30.454Z,98498.09
2018-06-22T04:15:33.257Z,98482.86
2018-06-22T04:16:36.813Z,98492.63
2018-06-22T04:17:50.880Z,98488.55
2018-06-22T04:18:53.660Z,98484.70
2018-06-22T04:19:56.485Z,98492.85
2018-06-22T04:20:59.294Z,98480.28
2018-06-22T04:22:02.111Z,98468.11
2018-06-22T04:23:04.906Z,98475.50
2018-06-22T04:24:08.727Z,98472.91
2018-06-22T04:25:11.740Z,98480.49
2018-06-22T04:26:15.019Z,98483.46
2018-06-22T04:27:19.094Z,98477.78
2018-06-22T04:28:21.936Z,98471.93
2018-06-22T04:29:25.130Z,98478.47
2018-06-22T04:30:27.943Z,98475.88
2018-06-22T04:31:31.662Z,98478.48
2018-06-22T04:32:34.841Z,98481.86
2018-06-22T04:33:37.676Z,98483.47
2018-06-22T04:34:40.488Z,98482.80
2018-06-22T04:35:43.817Z,98471.17
2018-06-22T04:36:47.687Z,98480.50
2018-06-22T04:37:50.478Z,98471.17
2018-06-22T04:38:53.286Z,98466.05
2018-06-22T04:39:57.195Z,98479.27
2018-06-22T04:40:59.987Z,98465.80
2018-06-22T04:42:03.353Z,98480.62
2018-06-22T04:43:06.155Z,98464.70
2018-06-22T04:44:09.019Z,98464.03
2018-06-22T04:45:11.850Z,98458.62
2018-06-22T04:46:14.803Z,98469.22
2018-06-22T04:47:20.000Z,98464.38
2018-06-22T04:48:24.274Z,98469.21
2018-06-22T04:49:27.247Z,98467.09
2018-06-22T04:50:30.208Z,98475.63
2018-06-22T04:51:33.240Z,98465.20
2018-06-22T04:52:36.094Z,98476.92
2018-06-22T04:53:40.319Z,98460.98
2018-06-22T04:54:45.670Z,98462.22
2018-06-22T04:55:48.501Z,98471.36
2018-06-22T04:56:51.324Z,98462.63
2018-06-22T04:57:54.278Z,98482.73
2018-06-22T04:58:57.881Z,98468.04
2018-06-22T05:00:01.631Z,98471.55
2018-06-22T05:01:04.475Z,98471.55
2018-06-22T05:02:07.339Z,98470.25
2018-06-22T05:03:10.173Z,98474.08
2018-06-22T05:04:12.963Z,98479.95
2018-06-22T05:05:15.761Z,98478.53
2018-06-22T05:06:18.580Z,98485.20
2018-06-22T05:07:21.879Z,98472.78
2018-06-22T05:08:26.372Z,98484.09
2018-06-22T05:09:30.193Z,98481.91
2018-06-22T05:10:32.980Z,98494.34
2018-06-22T05:11:35.825Z,98490.19
2018-06-22T05:12:38.763Z,98494.97
2018-06-22T05:13:41.979Z,98485.87
2018-06-22T05:14:46.220Z,98492.53
2018-06-22T05:15:49.861Z,98493.80
2018-06-22T05:16:52.596Z,98504.16
2018-06-22T05:17:55.407Z,98498.41
2018-06-22T05:19:01.866Z,98496.78
2018-06-22T05:20:05.084Z,98489.07
2018-06-22T05:21:09.379Z,98479.61
2018-06-22T05:22:12.798Z,98493.47
2018-06-22T05:23:16.152Z,98496.38
2018-06-22T05:24:19.326Z,98493.34
2018-06-22T05:25:22.149Z,98489.27
2018-06-22T05:26:25.341Z,98496.91
2018-06-22T05:27:28.211Z,98502.28
2018-06-22T05:28:31.020Z,98505.44
2018-06-22T05:29:34.513Z,98504.62
2018-06-22T05:30:37.440Z,98495.97
2018-06-22T05:31:42.060Z,98501.81
2018-06-22T05:32:45.373Z,98489.00
2018-06-22T05:33:48.236Z,98492.36
2018-06-22T05:34:51.064Z,98480.91
2018-06-22T05:35:53.993Z,98475.48
2018-06-22T05:36:56.835Z,98491.42
2018-06-22T05:38:00.568Z,98493.75
2018-06-22T05:39:04.133Z,98498.86
2018-06-22T05:40:07.008Z,98501.51
2018-06-22T05:41:09.819Z,98505.99
2018-06-22T05:42:12.708Z,98500.53
2018-06-22T05:43:15.577Z,98491.02
2018-06-22T05:44:18.522Z,98509.92
2018-06-22T05:45:22.706Z,98508.17
2018-06-22T05:46:25.590Z,98500.52
2018-06-22T05:47:28.404Z,98505.77
2018-06-22T05:48:31.241Z,98500.75
2018-06-22T05:49:34.081Z,98503.59
2018-06-22T05:50:37.484Z,98509.09
2018-06-22T05:51:41.498Z,98516.58
2018-06-22T05:52:44.320Z,98511.13
2018-06-22T05:53:47.193Z,98496.28
2018-06-22T05:54:50.930Z,98486.67
2018-06-22T05:55:53.875Z,98484.02
2018-06-22T05:56:56.695Z,98491.10
2018-06-22T05:58:00.986Z,98490.31
2018-06-22T05:59:04.397Z,98501.38
2018-06-22T06:00:08.499Z,98507.86
2018-06-22T06:01:11.317Z,98507.47
2018-06-22T06:02:14.211Z,98505.89
2018-06-22T06:03:17.045Z,98497.53
2018-06-22T06:04:22.913Z,98487.13
2018-06-22T06:05:25.741Z,98479.96
2018-06-22T06:06:28.575Z,98488.59
2018-06-22T06:07:31.402Z,98481.00
2018-06-22T06:08:35.376Z,98472.16
2018-06-22T06:09:38.199Z,98470.47
2018-06-22T06:10:44.949Z,98482.38
2018-06-22T06:11:47.775Z,98481.20
2018-06-22T06:12:50.644Z,98507.59
2018-06-22T06:13:53.461Z,98489.66
2018-06-22T06:14:56.354Z,98474.09
2018-06-22T06:15:59.801Z,98502.02
2018-06-22T06:17:02.960Z,98487.80
2018-06-22T06:18:05.819Z,98491.00
2018-06-22T06:19:11.592Z,98493.50
2018-06-22T06:20:14.422Z,98496.58
2018-06-22T06:21:17.277Z,98506.68
2018-06-22T06:22:23.220Z,98493.50
2018-06-22T06:23:27.546Z,98486.31
2018-06-22T06:24:31.481Z,98508.88
2018-06-22T06:26:35.445Z,98512.81
2018-06-22T06:27:38.671Z,98513.31
2018-06-22T06:28:41.849Z,98482.98
2018-06-22T06:29:46.382Z,98481.80
2018-06-22T06:30:49.256Z,98493.44
2018-06-22T06:31:52.120Z,98482.05
2018-06-22T06:32:54.978Z,98498.70
2018-06-22T06:33:57.795Z,98481.80
2018-06-22T06:35:00.601Z,98510.76
2018-06-22T06:36:03.701Z,98502.28
2018-06-22T06:37:07.550Z,98501.89
2018-06-22T06:38:10.599Z,98488.12
2018-06-22T06:39:14.357Z,98507.18
2018-06-22T06:40:17.815Z,98507.58
2018-06-22T06:41:20.899Z,98509.40
2018-06-22T06:42:25.772Z,98511.80
2018-06-22T06:43:29.733Z,98504.25
2018-06-22T06:44:32.837Z,98507.11
2018-06-22T06:45:35.655Z,98507.18
2018-06-22T06:46:39.545Z,98508.33
2018-06-22T06:47:42.522Z,98511.95
2018-06-22T06:48:45.858Z,98520.52
2018-06-22T06:49:48.665Z,98508.20
2018-06-22T06:50:51.499Z,98507.09
2018-06-22T06:51:54.307Z,98488.39
2018-06-22T06:52:57.140Z,98506.01
2018-06-22T06:54:00.330Z,98516.15
2018-06-22T06:55:04.390Z,98520.77
2018-06-22T06:56:07.230Z,98513.61
2018-06-22T06:57:10.087Z,98501.75
2018-06-22T06:58:13.170Z,98502.47
2018-06-22T06:59:16.980Z,98501.50
2018-06-22T07:00:21.675Z,98502.68
2018-06-22T07:01:25.614Z,98487.31
2018-06-22T07:02:32.624Z,98502.43
2018-06-22T07:03:35.756Z,98491.08
2018-06-22T07:04:39.461Z,98501.17
2018-06-22T07:05:42.578Z,98502.97
2018-06-22T07:06:45.533Z,98515.97
2018-06-22T07:07:49.484Z,98511.17
2018-06-22T07:08:52.361Z,98504.76
2018-06-22T07:09:55.800Z,98523.17
2018-06-22T07:10:59.282Z,98519.09
2018-06-22T07:12:02.166Z,98515.83
2018-06-22T07:13:05.061Z,98531.42
2018-06-22T07:14:07.896Z,98524.56
2018-06-22T07:15:10.751Z,98528.51
2018-06-22T07:16:18.183Z,98511.49
2018-06-22T07:17:21.225Z,98529.41
2018-06-22T07:18:25.336Z,98534.45
2018-06-22T07:19:29.566Z,98534.84
2018-06-22T07:20:34.347Z,98534.28
2018-06-22T07:21:37.322Z,98520.83
2018-06-22T07:22:41.999Z,98536.48
2018-06-22T07:23:46.974Z,98536.09
2018-06-22T07:24:50.626Z,98541.59
2018-06-22T07:25:53.837Z,98530.30
2018-06-22T07:26:56.729Z,98536.88
2018-06-22T07:27:59.591Z,98539.80
2018-06-22T07:29:02.431Z,98516.63
2018-06-22T07:30:05.259Z,98528.73
2018-06-22T07:31:09.313Z,98532.26
2018-06-22T07:32:12.163Z,98534.36
2018-06-22T07:33:15.600Z,98553.37
2018-06-22T07:34:18.447Z,98543.97
2018-06-22T07:35:21.332Z,98545.73
2018-06-22T07:36:24.260Z,98545.02
2018-06-22T07:37:27.488Z,98538.03
2018-06-22T07:38:30.925Z,98519.52
2018-06-22T07:39:35.016Z,98506.91
2018-06-22T07:40:38.640Z,98531.20
2018-06-22T07:41:42.761Z,98537.94
2018-06-22T07:42:45.591Z,98546.36
2018-06-22T07:43:48.852Z,98547.74
2018-06-22T07:44:51.649Z,98538.36
2018-06-22T07:45:54.764Z,98547.00
2018-06-22T07:46:57.919Z,98553.10
2018-06-22T07:48:00.763Z,98551.59
2018-06-22T07:49:03.738Z,98540.28
2018-06-22T07:50:06.966Z,98554.32
2018-06-22T07:51:10.044Z,98553.45
2018-06-22T07:52:13.947Z,98554.58
2018-06-22T07:53:17.609Z,98547.38
2018-06-22T07:54:21.326Z,98549.62
2018-06-22T07:55:25.686Z,98558.30
2018-06-22T07:56:29.503Z,98554.52
2018-06-22T07:57:32.825Z,98548.14
2018-06-22T07:58:36.642Z,98543.66
2018-06-22T07:59:39.447Z,98556.87
2018-06-22T08:00:42.299Z,98567.16
2018-06-22T08:01:45.095Z,98553.81
2018-06-22T08:02:53.912Z,98557.12
2018-06-22T08:03:58.018Z,98566.09
2018-06-22T08:05:04.648Z,98563.22
2018-06-22T08:06:07.645Z,98577.41
2018-06-22T08:07:10.505Z,98567.87
2018-06-22T08:08:21.059Z,98567.08
2018-06-22T08:09:24.838Z,98580.16
2018-06-22T08:10:28.245Z,98578.13
2018-06-22T08:11:31.536Z,98570.28
2018-06-22T08:12:34.417Z,98576.70
2018-06-22T08:13:37.248Z,98566.68
2018-06-22T08:14:40.787Z,98575.20
2018-06-22T08:15:44.253Z,98577.45
2018-06-22T08:16:48.907Z,98581.08
2018-06-22T08:17:51.739Z,98574.55
2018-06-22T08:18:55.182Z,98576.59
2018-06-22T08:19:58.047Z,98575.08
2018-06-22T08:21:01.475Z,98577.53
2018-06-22T08:22:04.665Z,98575.55
2018-06-22T08:23:07.552Z,98582.95
2018-06-22T08:24:10.640Z,98581.80
2018-06-22T08:25:14.597Z,98579.39
2018-06-22T08:26:17.477Z,98582.04
2018-06-22T08:27:21.616Z,98585.09
2018-06-22T08:28:26.488Z,98579.44
2018-06-22T08:29:29.904Z,98576.72
2018-06-22T08:30:32.732Z,98581.00
2018-06-22T08:31:37.130Z,98582.45
2018-06-22T08:32:39.978Z,98586.55
2018-06-22T08:33:43.127Z,98587.44
2018-06-22T08:34:45.932Z,98593.21
2018-06-22T08:35:48.803Z,98573.30
2018-06-22T08:36:52.540Z,98591.42
2018-06-22T08:37:55.646Z,98598.92
2018-06-22T08:38:58.521Z,98597.89
2018-06-22T08:40:01.685Z,98561.38
2018-06-22T08:41:05.233Z,98588.16
2018-06-22T08:42:08.440Z,98594.80
2018-06-22T08:43:12.491Z,98597.15
2018-06-22T08:44:15.330Z,98597.30
2018-06-22T08:45:18.166Z,98586.65
2018-06-22T08:46:21.616Z,98587.61
2018-06-22T08:47:24.557Z,98598.67
2018-06-22T08:48:28.503Z,98598.38
2018-06-22T08:49:33.447Z,98600.61
2018-06-22T08:50:37.218Z,98599.48
2018-06-22T08:51:41.366Z,98625.80
2018-06-22T08:52:44.748Z,98601.55
2018-06-22T08:53:49.217Z,98597.20
2018-06-22T08:54:52.696Z,98605.03
2018-06-22T08:56:00.206Z,98614.67
2018-06-22T08:57:03.594Z,98616.44
2018-06-22T08:58:08.340Z,98611.25
2018-06-22T08:59:11.528Z,98620.22
2018-06-22T09:00:15.851Z,98607.88
2018-06-22T09:01:18.738Z,98622.33
2018-06-22T09:02:21.626Z,98577.63
2018-06-22T09:03:25.107Z,98627.67
2018-06-22T09:04:28.357Z,98625.92
2018-06-22T09:05:31.203Z,98634.42
2018-06-22T09:06:35.777Z,98628.14
2018-06-22T09:07:38.616Z,98644.60
2018-06-22T09:08:42.204Z,98629.61
2018-06-22T09:09:45.382Z,98633.34
2018-06-22T09:10:49.648Z,98628.25
2018-06-22T09:11:52.518Z,98634.05
2018-06-22T09:12:55.402Z,98638.80
2018-06-22T09:13:58.240Z,98613.80
2018-06-22T09:15:02.130Z,98630.20
2018-06-22T09:16:05.450Z,98637.95
2018-06-22T09:17:10.522Z,98639.25
2018-06-22T09:18:16.945Z,98628.90
2018-06-22T09:19:23.441Z,98634.26
2018-06-22T09:20:28.334Z,98623.92
2018-06-22T09:21:32.086Z,98625.14
2018-06-22T09:22:34.889Z,98617.70
2018-06-22T09:23:40.086Z,98625.27
2018-06-22T09:24:43.752Z,98633.46
2018-06-22T09:25:46.572Z,98623.89
2018-06-22T09:26:49.398Z,98620.27
2018-06-22T09:27:52.253Z,98623.45
2018-06-22T09:28:55.114Z,98627.81
2018-06-22T09:29:58.420Z,98628.45
2018-06-22T09:31:01.260Z,98622.78
2018-06-22T09:32:05.743Z,98623.95
2018-06-22T09:33:09.519Z,98629.16
2018-06-22T09:34:12.388Z,98631.86
2018-06-22T09:35:15.162Z,98605.59
2018-06-22T09:36:19.249Z,98618.38
2018-06-22T09:37:22.305Z,98621.26
2018-06-22T09:38:25.115Z,98622.94
2018-06-22T09:39:27.998Z,98603.58
2018-06-22T09:40:30.875Z,98616.45
2018-06-22T09:41:33.734Z,98622.58
2018-06-22T09:42:37.863Z,98612.81
2018-06-22T09:43:41.454Z,98622.66
2018-06-22T09:44:44.623Z,98611.78
2018-06-22T09:45:48.305Z,98631.67
2018-06-22T09:46:51.942Z,98607.23
2018-06-22T09:47:55.555Z,98627.47
2018-06-22T09:48:58.824Z,98607.70
2018-06-22T09:50:02.522Z,98618.06
2018-06-22T09:51:08.632Z,98613.30
2018-06-22T09:52:11.467Z,98621.93
2018-06-22T09:53:16.527Z,98604.16
2018-06-22T09:54:19.392Z,98616.94
2018-06-22T09:55:27.691Z,98609.95
2018-06-22T09:56:33.273Z,98612.72
2018-06-22T09:57:36.687Z,98595.89
2018-06-22T09:58:40.509Z,98600.16
2018-06-22T09:59:43.327Z,98612.45
2018-06-22T10:00:55.599Z,98564.12
2018-06-22T10:01:59.278Z,98620.06
2018-06-22T10:03:03.398Z,98604.43
2018-06-22T10:04:07.389Z,98627.14
2018-06-22T10:05:10.296Z,98595.91
2018-06-22T10:06:13.134Z,98615.73
2018-06-22T10:07:16.441Z,98620.36
2018-06-22T10:08:21.380Z,98635.41
2018-06-22T10:09:24.355Z,98630.13
2018-06-22T10:10:27.228Z,98628.52
2018-06-22T10:11:31.539Z,98620.58
2018-06-22T10:12:34.361Z,98634.64
2018-06-22T10:13:37.803Z,98636.63
2018-06-22T10:14:40.736Z,98626.42
2018-06-22T10:15:47.540Z,98623.63
2018-06-22T10:16:52.121Z,98623.55
2018-06-22T10:17:56.093Z,98635.85
2018-06-22T10:18:59.705Z,98640.16
2018-06-22T10:20:05.280Z,98633.10
2018-06-22T10:21:08.508Z,98625.94
2018-06-22T10:22:11.534Z,98631.67
2018-06-22T10:23:14.457Z,98619.31
2018-06-22T10:24:17.381Z,98616.91
2018-06-22T10:25:20.495Z,98632.50
2018-06-22T10:26:23.686Z,98633.23
2018-06-22T10:27:27.489Z,98620.24
2018-06-22T10:28:30.340Z,98630.05
2018-06-22T10:29:33.247Z,98631.35
2018-06-22T10:30:36.074Z,98636.36
2018-06-22T10:31:40.279Z,98617.53
2018-06-22T10:32:43.393Z,98623.94
2018-06-22T10:33:46.280Z,98623.26
2018-06-22T10:34:50.159Z,98635.25
2018-06-22T10:35:52.994Z,98640.53
2018-06-22T10:36:59.507Z,98635.18
2018-06-22T10:38:02.546Z,98623.34
2018-06-22T10:39:06.575Z,98647.62
2018-06-22T10:40:12.558Z,98649.51
2018-06-22T10:41:16.445Z,98648.31
2018-06-22T10:42:19.291Z,98638.03
2018-06-22T10:43:22.385Z,98638.53
2018-06-22T10:44:25.262Z,98634.56
2018-06-22T10:45:28.519Z,98629.37
2018-06-22T10:46:31.337Z,98630.06
2018-06-22T10:47:34.153Z,98631.80
2018-06-22T10:48:43.334Z,98643.59
2018-06-22T10:49:46.830Z,98627.23
2018-06-22T10:50:52.605Z,98629.39
2018-06-22T10:51:55.811Z,98633.72
2018-06-22T10:53:00.005Z,98625.90
2018-06-22T10:54:03.418Z,98626.41
2018-06-22T10:55:06.392Z,98633.80
2018-06-22T10:56:09.213Z,98628.45
2018-06-22T10:57:12.091Z,98627.48
2018-06-22T10:58:14.958Z,98635.08
2018-06-22T10:59:17.796Z,98634.69
2018-06-22T11:00:20.676Z,98612.23
2018-06-22T11:01:23.688Z,98630.30
2018-06-22T11:02:26.699Z,98630.03
2018-06-22T11:03:31.317Z,98620.80
2018-06-22T11:04:34.803Z,98620.28
2018-06-22T11:05:37.732Z,98628.48
2018-06-22T11:06:40.809Z,98633.43
2018-06-22T11:07:43.667Z,98641.19
2018-06-22T11:08:46.805Z,98641.78
2018-06-22T11:09:51.527Z,98634.94
2018-06-22T11:10:54.357Z,98645.55
2018-06-22T11:11:57.394Z,98636.86
2018-06-22T11:13:03.503Z,98628.89
2018-06-22T11:14:11.456Z,98634.74
2018-06-22T11:16:32.617Z,98660.63
2018-06-22T11:17:36.878Z,98647.25
2018-06-22T11:18:42.077Z,98647.84
2018-06-22T11:19:47.059Z,98640.86
2018-06-22T11:20:53.481Z,98632.44
2018-06-22T11:21:58.798Z,98646.91
2018-06-22T11:23:02.606Z,98651.56
2018-06-22T11:25:17.712Z,98650.64
2018-06-22T11:26:22.376Z,98654.59
2018-06-22T12:08:05.384Z,98647.62
2018-06-22T12:09:09.426Z,98662.38
2018-06-22T12:10:12.270Z,98656.06
2018-06-22T12:11:16.561Z,98664.12
2018-06-22T12:12:19.387Z,98680.63
2018-06-22T12:13:24.513Z,98668.20
2018-06-22T12:14:29.427Z,98675.97
2018-06-22T12:15:32.280Z,98685.19
2018-06-22T12:22:06.677Z,98669.75
2018-06-22T12:23:12.458Z,98684.04
2018-06-22T12:24:15.350Z,98676.16
2018-06-22T12:25:20.182Z,98670.82
2018-06-22T12:26:23.492Z,98688.57
2018-06-22T12:27:26.350Z,98694.62
2018-06-22T12:28:29.427Z,98678.75
2018-06-22T12:29:32.927Z,98677.34
2018-06-22T12:30:36.612Z,98678.34
2018-06-22T12:31:40.204Z,98681.48
2018-06-22T12:32:43.057Z,98670.27
2018-06-22T12:33:46.925Z,98678.83
2018-06-22T12:34:51.698Z,98676.86
2018-06-22T12:35:54.508Z,98674.78
2018-06-22T12:36:58.261Z,98678.28
2018-06-22T12:38:01.138Z,98683.41
2018-06-22T12:39:04.547Z,98679.23
2018-06-22T12:40:12.426Z,98672.95
2018-06-22T12:41:16.538Z,98669.37
2018-06-22T12:42:19.366Z,98670.13
2018-06-22T12:43:23.339Z,98651.73
2018-06-22T12:44:26.849Z,98655.66
2018-06-22T12:45:29.747Z,98665.70
2018-06-22T12:46:33.561Z,98649.46
2018-06-22T12:47:37.215Z,98653.81
2018-06-22T12:48:43.106Z,98640.27
2018-06-22T12:49:46.849Z,98655.98
2018-06-22T12:50:49.651Z,98662.60
2018-06-22T12:51:53.357Z,98666.22
2018-06-22T12:52:56.684Z,98669.48
2018-06-22T12:53:59.556Z,98670.48
2018-06-22T12:55:02.876Z,98659.14
2018-06-22T12:56:07.005Z,98671.51
2018-06-22T12:57:10.028Z,98668.88
2018-06-22T12:58:12.936Z,98673.03
2018-06-22T12:59:30.493Z,98670.94
2018-06-22T13:00:33.352Z,98659.53
2018-06-22T13:01:36.236Z,98666.08
2018-06-22T13:02:43.500Z,98671.36
2018-06-22T13:03:46.342Z,98662.09
2018-06-22T13:04:49.193Z,98682.63
2018-06-22T13:05:53.572Z,98669.86
2018-06-22T13:06:56.690Z,98676.09
2018-06-22T13:07:59.981Z,98679.61
2018-06-22T13:09:04.106Z,98691.83
2018-06-22T13:10:07.199Z,98689.08
2018-06-22T13:11:10.058Z,98692.35
2018-06-22T13:12:16.903Z,98688.25
2018-06-22T13:13:20.448Z,98689.97
2018-06-22T13:14:24.491Z,98678.91
2018-06-22T13:15:29.342Z,98669.83
2018-06-22T13:16:33.563Z,98676.52